sensor_id;sensor_type;location;lat;lon;timestamp;P1;durP1;ratioP1;P2;durP2;ratioP2
7657;SDS011;8462;53.156;8.220;2022-08-06T00:02:02;3.00;;;1.20;;
7657;SDS011;8462;53.156;8.220;2022-08-06T00:04:30;2.10;;;1.07;;
7657;SDS011;8462;53.156;8.220;2022-08-06T00:06:57;3.00;;;1.30;;
7657;SDS011;8462;53.156;8.220;2022-08-06T00:09:24;6.67;;;1.90;;
7657;SDS011;8462;53.156;8.220;2022-08-06T00:11:55;1.80;;;1.50;;
7657;SDS011;8462;53.156;8.220;2022-08-06T00:14:22;1.87;;;1.43;;
7657;SDS011;8462;53.156;8.220;2022-08-06T00:16:51;1.80;;;1.50;;
7657;SDS011;8462;53.156;8.220;2022-08-06T00:19:18;3.67;;;1.90;;
7657;SDS011;8462;53.156;8.220;2022-08-06T00:21:45;2.30;;;1.47;;
7657;SDS011;8462;53.156;8.220;2022-08-06T00:24:12;2.07;;;1.40;;
7657;SDS011;8462;53.156;8.220;2022-08-06T00:26:39;1.50;;;1.40;;
7657;SDS011;8462;53.156;8.220;2022-08-06T00:29:05;1.30;;;1.20;;
7657;SDS011;8462;53.156;8.220;2022-08-06T00:31:33;6.40;;;1.60;;
7657;SDS011;8462;53.156;8.220;2022-08-06T00:34:01;3.03;;;1.57;;
7657;SDS011;8462;53.156;8.220;2022-08-06T00:36:29;2.60;;;1.63;;
7657;SDS011;8462;53.156;8.220;2022-08-06T00:38:57;1.63;;;1.47;;
7657;SDS011;8462;53.156;8.220;2022-08-06T00:41:24;3.00;;;2.47;;
7657;SDS011;8462;53.156;8.220;2022-08-06T00:43:52;3.23;;;1.80;;
7657;SDS011;8462;53.156;8.220;2022-08-06T00:46:20;2.10;;;1.70;;
7657;SDS011;8462;53.156;8.220;2022-08-06T00:48:47;1.60;;;1.50;;
7657;SDS011;8462;53.156;8.220;2022-08-06T00:51:15;1.97;;;1.77;;
7657;SDS011;8462;53.156;8.220;2022-08-06T00:53:42;1.47;;;1.37;;
7657;SDS011;8462;53.156;8.220;2022-08-06T00:56:09;2.80;;;1.80;;
7657;SDS011;8462;53.156;8.220;2022-08-06T00:58:36;4.00;;;1.90;;
7657;SDS011;8462;53.156;8.220;2022-08-06T01:01:03;4.20;;;1.87;;
7657;SDS011;8462;53.156;8.220;2022-08-06T01:03:30;3.17;;;1.60;;
7657;SDS011;8462;53.156;8.220;2022-08-06T01:05:57;2.37;;;1.67;;
7657;SDS011;8462;53.156;8.220;2022-08-06T01:08:25;1.63;;;1.50;;
7657;SDS011;8462;53.156;8.220;2022-08-06T01:10:52;1.57;;;1.47;;
7657;SDS011;8462;53.156;8.220;2022-08-06T01:13:19;2.43;;;1.77;;
7657;SDS011;8462;53.156;8.220;2022-08-06T01:15:49;2.07;;;1.73;;
7657;SDS011;8462;53.156;8.220;2022-08-06T01:18:18;4.30;;;2.03;;
7657;SDS011;8462;53.156;8.220;2022-08-06T01:20:51;2.00;;;1.67;;
7657;SDS011;8462;53.156;8.220;2022-08-06T01:23:34;4.03;;;1.77;;
7657;SDS011;8462;53.156;8.220;2022-08-06T01:29:02;2.50;;;1.63;;
7657;SDS011;8462;53.156;8.220;2022-08-06T01:31:32;3.10;;;1.80;;
7657;SDS011;8462;53.156;8.220;2022-08-06T01:34:05;2.70;;;1.63;;
7657;SDS011;8462;53.156;8.220;2022-08-06T01:36:39;2.60;;;1.70;;
7657;SDS011;8462;53.156;8.220;2022-08-06T01:39:10;2.43;;;1.60;;
7657;SDS011;8462;53.156;8.220;2022-08-06T01:41:40;2.97;;;1.70;;
7657;SDS011;8462;53.156;8.220;2022-08-06T01:44:13;1.70;;;1.53;;
7657;SDS011;8462;53.156;8.220;2022-08-06T01:46:43;3.30;;;1.90;;
7657;SDS011;8462;53.156;8.220;2022-08-06T01:49:12;2.50;;;2.27;;
7657;SDS011;8462;53.156;8.220;2022-08-06T01:51:42;2.43;;;2.10;;
7657;SDS011;8462;53.156;8.220;2022-08-06T01:54:11;2.40;;;1.97;;
7657;SDS011;8462;53.156;8.220;2022-08-06T01:56:41;2.00;;;1.80;;
7657;SDS011;8462;53.156;8.220;2022-08-06T01:59:10;3.17;;;1.77;;
7657;SDS011;8462;53.156;8.220;2022-08-06T02:01:42;2.23;;;2.00;;
7657;SDS011;8462;53.156;8.220;2022-08-06T02:04:13;2.53;;;1.90;;
7657;SDS011;8462;53.156;8.220;2022-08-06T02:06:43;2.37;;;2.00;;
7657;SDS011;8462;53.156;8.220;2022-08-06T02:09:13;2.07;;;1.90;;
7657;SDS011;8462;53.156;8.220;2022-08-06T02:11:43;2.90;;;1.93;;
7657;SDS011;8462;53.156;8.220;2022-08-06T02:14:13;2.40;;;2.10;;
7657;SDS011;8462;53.156;8.220;2022-08-06T02:16:42;2.43;;;2.00;;
7657;SDS011;8462;53.156;8.220;2022-08-06T02:19:11;2.97;;;2.10;;
7657;SDS011;8462;53.156;8.220;2022-08-06T02:21:41;3.90;;;2.20;;
7657;SDS011;8462;53.156;8.220;2022-08-06T02:24:10;3.70;;;2.60;;
7657;SDS011;8462;53.156;8.220;2022-08-06T02:26:38;6.23;;;2.30;;
7657;SDS011;8462;53.156;8.220;2022-08-06T02:29:10;2.30;;;2.10;;
7657;SDS011;8462;53.156;8.220;2022-08-06T02:31:42;2.47;;;2.27;;
7657;SDS011;8462;53.156;8.220;2022-08-06T02:34:09;2.73;;;2.17;;
7657;SDS011;8462;53.156;8.220;2022-08-06T02:36:39;2.77;;;2.57;;
7657;SDS011;8462;53.156;8.220;2022-08-06T02:39:09;2.87;;;2.40;;
7657;SDS011;8462;53.156;8.220;2022-08-06T02:41:40;3.83;;;2.30;;
7657;SDS011;8462;53.156;8.220;2022-08-06T02:44:10;2.33;;;2.13;;
7657;SDS011;8462;53.156;8.220;2022-08-06T02:46:43;4.40;;;2.87;;
7657;SDS011;8462;53.156;8.220;2022-08-06T02:49:16;3.20;;;2.40;;
7657;SDS011;8462;53.156;8.220;2022-08-06T02:51:48;3.23;;;2.63;;
7657;SDS011;8462;53.156;8.220;2022-08-06T02:54:21;2.83;;;2.50;;
7657;SDS011;8462;53.156;8.220;2022-08-06T02:56:55;3.77;;;2.30;;
7657;SDS011;8462;53.156;8.220;2022-08-06T02:59:27;4.03;;;2.73;;
7657;SDS011;8462;53.156;8.220;2022-08-06T03:02:00;3.70;;;2.73;;
7657;SDS011;8462;53.156;8.220;2022-08-06T03:04:29;4.87;;;2.50;;
7657;SDS011;8462;53.156;8.220;2022-08-06T03:06:58;3.40;;;3.10;;
7657;SDS011;8462;53.156;8.220;2022-08-06T03:09:30;4.50;;;2.47;;
7657;SDS011;8462;53.156;8.220;2022-08-06T03:11:57;3.27;;;2.80;;
7657;SDS011;8462;53.156;8.220;2022-08-06T03:14:25;4.10;;;2.60;;
7657;SDS011;8462;53.156;8.220;2022-08-06T03:16:53;3.93;;;3.20;;
7657;SDS011;8462;53.156;8.220;2022-08-06T03:19:23;3.07;;;2.70;;
7657;SDS011;8462;53.156;8.220;2022-08-06T03:21:54;3.93;;;2.90;;
7657;SDS011;8462;53.156;8.220;2022-08-06T03:24:23;3.47;;;2.60;;
7657;SDS011;8462;53.156;8.220;2022-08-06T03:26:51;3.57;;;2.93;;
7657;SDS011;8462;53.156;8.220;2022-08-06T03:29:21;3.70;;;2.77;;
7657;SDS011;8462;53.156;8.220;2022-08-06T03:31:51;4.13;;;2.67;;
7657;SDS011;8462;53.156;8.220;2022-08-06T03:34:18;4.17;;;2.80;;
7657;SDS011;8462;53.156;8.220;2022-08-06T03:36:47;6.07;;;3.10;;
7657;SDS011;8462;53.156;8.220;2022-08-06T03:39:15;3.53;;;2.97;;
7657;SDS011;8462;53.156;8.220;2022-08-06T03:41:43;5.07;;;3.17;;
7657;SDS011;8462;53.156;8.220;2022-08-06T03:44:12;4.83;;;3.00;;
7657;SDS011;8462;53.156;8.220;2022-08-06T03:46:41;4.33;;;2.60;;
7657;SDS011;8462;53.156;8.220;2022-08-06T03:49:14;4.40;;;3.33;;
7657;SDS011;8462;53.156;8.220;2022-08-06T03:51:45;7.70;;;3.33;;
7657;SDS011;8462;53.156;8.220;2022-08-06T03:54:18;3.17;;;2.87;;
7657;SDS011;8462;53.156;8.220;2022-08-06T03:56:49;3.47;;;3.00;;
7657;SDS011;8462;53.156;8.220;2022-08-06T03:59:18;5.17;;;2.80;;
7657;SDS011;8462;53.156;8.220;2022-08-06T04:01:46;4.43;;;3.07;;
7657;SDS011;8462;53.156;8.220;2022-08-06T04:04:15;3.10;;;2.60;;
7657;SDS011;8462;53.156;8.220;2022-08-06T04:06:43;6.67;;;2.80;;
7657;SDS011;8462;53.156;8.220;2022-08-06T04:09:13;3.40;;;2.97;;
7657;SDS011;8462;53.156;8.220;2022-08-06T04:11:40;3.07;;;2.73;;
7657;SDS011;8462;53.156;8.220;2022-08-06T04:14:07;5.87;;;2.93;;
7657;SDS011;8462;53.156;8.220;2022-08-06T04:16:35;3.93;;;3.17;;
7657;SDS011;8462;53.156;8.220;2022-08-06T04:19:04;4.23;;;2.80;;
7657;SDS011;8462;53.156;8.220;2022-08-06T04:21:33;5.43;;;3.03;;
7657;SDS011;8462;53.156;8.220;2022-08-06T04:24:00;4.20;;;2.73;;
7657;SDS011;8462;53.156;8.220;2022-08-06T04:26:29;6.37;;;3.83;;
7657;SDS011;8462;53.156;8.220;2022-08-06T04:28:57;5.07;;;2.80;;
7657;SDS011;8462;53.156;8.220;2022-08-06T04:31:27;3.93;;;2.90;;
7657;SDS011;8462;53.156;8.220;2022-08-06T04:33:56;4.70;;;3.03;;
7657;SDS011;8462;53.156;8.220;2022-08-06T04:36:24;5.27;;;3.27;;
7657;SDS011;8462;53.156;8.220;2022-08-06T04:38:52;3.50;;;2.90;;
7657;SDS011;8462;53.156;8.220;2022-08-06T04:41:19;3.60;;;2.90;;
7657;SDS011;8462;53.156;8.220;2022-08-06T04:43:47;3.43;;;2.70;;
7657;SDS011;8462;53.156;8.220;2022-08-06T04:46:15;3.70;;;2.70;;
7657;SDS011;8462;53.156;8.220;2022-08-06T04:48:42;3.00;;;2.80;;
7657;SDS011;8462;53.156;8.220;2022-08-06T04:51:10;3.03;;;2.70;;
7657;SDS011;8462;53.156;8.220;2022-08-06T04:53:38;4.37;;;2.90;;
7657;SDS011;8462;53.156;8.220;2022-08-06T04:56:07;3.27;;;2.70;;
7657;SDS011;8462;53.156;8.220;2022-08-06T04:58:35;2.53;;;2.33;;
7657;SDS011;8462;53.156;8.220;2022-08-06T05:01:03;5.37;;;2.50;;
7657;SDS011;8462;53.156;8.220;2022-08-06T05:03:30;3.20;;;2.30;;
7657;SDS011;8462;53.156;8.220;2022-08-06T05:05:59;3.40;;;2.27;;
7657;SDS011;8462;53.156;8.220;2022-08-06T05:08:30;4.07;;;2.27;;
7657;SDS011;8462;53.156;8.220;2022-08-06T05:11:00;2.83;;;2.50;;
7657;SDS011;8462;53.156;8.220;2022-08-06T05:13:32;2.93;;;2.50;;
7657;SDS011;8462;53.156;8.220;2022-08-06T05:16:07;2.60;;;2.10;;
7657;SDS011;8462;53.156;8.220;2022-08-06T05:18:36;1.90;;;1.80;;
7657;SDS011;8462;53.156;8.220;2022-08-06T05:21:06;3.47;;;2.20;;
7657;SDS011;8462;53.156;8.220;2022-08-06T05:23:36;3.07;;;1.63;;
7657;SDS011;8462;53.156;8.220;2022-08-06T05:26:06;1.87;;;1.53;;
7657;SDS011;8462;53.156;8.220;2022-08-06T05:28:34;1.93;;;1.83;;
7657;SDS011;8462;53.156;8.220;2022-08-06T05:31:05;1.70;;;1.50;;
7657;SDS011;8462;53.156;8.220;2022-08-06T05:33:34;1.83;;;1.55;;
7657;SDS011;8462;53.156;8.220;2022-08-06T05:36:03;4.78;;;1.67;;
7657;SDS011;8462;53.156;8.220;2022-08-06T05:38:32;3.15;;;1.45;;
7657;SDS011;8462;53.156;8.220;2022-08-06T05:41:00;1.50;;;1.33;;
7657;SDS011;8462;53.156;8.220;2022-08-06T05:43:27;3.47;;;1.42;;
7657;SDS011;8462;53.156;8.220;2022-08-06T05:45:56;2.10;;;1.67;;
7657;SDS011;8462;53.156;8.220;2022-08-06T05:48:28;1.70;;;1.30;;
7657;SDS011;8462;53.156;8.220;2022-08-06T05:50:59;1.70;;;1.38;;
7657;SDS011;8462;53.156;8.220;2022-08-06T05:53:30;3.78;;;2.25;;
7657;SDS011;8462;53.156;8.220;2022-08-06T05:56:02;1.60;;;1.50;;
7657;SDS011;8462;53.156;8.220;2022-08-06T05:58:34;2.47;;;1.40;;
7657;SDS011;8462;53.156;8.220;2022-08-06T06:01:05;3.63;;;1.50;;
7657;SDS011;8462;53.156;8.220;2022-08-06T06:03:36;3.42;;;1.50;;
7657;SDS011;8462;53.156;8.220;2022-08-06T06:06:04;1.98;;;1.27;;
7657;SDS011;8462;53.156;8.220;2022-08-06T06:08:32;1.55;;;1.40;;
7657;SDS011;8462;53.156;8.220;2022-08-06T06:11:00;1.50;;;1.05;;
7657;SDS011;8462;53.156;8.220;2022-08-06T06:13:28;2.88;;;1.55;;
7657;SDS011;8462;53.156;8.220;2022-08-06T06:15:57;2.05;;;1.10;;
7657;SDS011;8462;53.156;8.220;2022-08-06T06:18:37;1.15;;;1.02;;
7657;SDS011;8462;53.156;8.220;2022-08-06T06:21:13;2.55;;;1.20;;
7657;SDS011;8462;53.156;8.220;2022-08-06T06:23:48;1.98;;;1.20;;
7657;SDS011;8462;53.156;8.220;2022-08-06T06:26:21;2.65;;;1.15;;
7657;SDS011;8462;53.156;8.220;2022-08-06T06:28:55;2.67;;;1.10;;
7657;SDS011;8462;53.156;8.220;2022-08-06T06:31:39;3.10;;;1.40;;
7657;SDS011;8462;53.156;8.220;2022-08-06T06:34:16;2.90;;;1.17;;
7657;SDS011;8462;53.156;8.220;2022-08-06T06:36:46;3.90;;;1.35;;
7657;SDS011;8462;53.156;8.220;2022-08-06T06:39:21;1.48;;;1.00;;
7657;SDS011;8462;53.156;8.220;2022-08-06T06:41:55;1.65;;;1.20;;
7657;SDS011;8462;53.156;8.220;2022-08-06T06:44:35;2.67;;;1.20;;
7657;SDS011;8462;53.156;8.220;2022-08-06T06:47:09;3.08;;;0.85;;
7657;SDS011;8462;53.156;8.220;2022-08-06T06:49:43;0.68;;;0.68;;
7657;SDS011;8462;53.156;8.220;2022-08-06T06:52:14;0.88;;;0.80;;
7657;SDS011;8462;53.156;8.220;2022-08-06T06:54:48;0.95;;;0.77;;
7657;SDS011;8462;53.156;8.220;2022-08-06T06:57:20;1.25;;;0.80;;
7657;SDS011;8462;53.156;8.220;2022-08-06T06:59:55;2.45;;;0.90;;
7657;SDS011;8462;53.156;8.220;2022-08-06T07:02:25;2.58;;;0.60;;
7657;SDS011;8462;53.156;8.220;2022-08-06T07:04:57;2.80;;;1.02;;
7657;SDS011;8462;53.156;8.220;2022-08-06T07:07:28;1.50;;;1.10;;
7657;SDS011;8462;53.156;8.220;2022-08-06T07:09:57;1.90;;;0.80;;
7657;SDS011;8462;53.156;8.220;2022-08-06T07:12:27;1.00;;;0.70;;
7657;SDS011;8462;53.156;8.220;2022-08-06T07:14:57;1.92;;;0.73;;
7657;SDS011;8462;53.156;8.220;2022-08-06T07:17:26;1.05;;;0.80;;
7657;SDS011;8462;53.156;8.220;2022-08-06T07:19:56;1.42;;;0.65;;
7657;SDS011;8462;53.156;8.220;2022-08-06T07:22:27;0.80;;;0.60;;
7657;SDS011;8462;53.156;8.220;2022-08-06T07:24:56;1.90;;;0.88;;
7657;SDS011;8462;53.156;8.220;2022-08-06T07:27:25;1.58;;;1.20;;
7657;SDS011;8462;53.156;8.220;2022-08-06T07:29:56;2.55;;;0.70;;
7657;SDS011;8462;53.156;8.220;2022-08-06T07:32:24;1.48;;;0.82;;
7657;SDS011;8462;53.156;8.220;2022-08-06T07:34:52;0.68;;;0.63;;
7657;SDS011;8462;53.156;8.220;2022-08-06T07:37:21;1.88;;;0.95;;
7657;SDS011;8462;53.156;8.220;2022-08-06T07:39:52;2.75;;;0.80;;
7657;SDS011;8462;53.156;8.220;2022-08-06T07:42:20;2.30;;;0.60;;
7657;SDS011;8462;53.156;8.220;2022-08-06T07:44:50;1.60;;;0.50;;
7657;SDS011;8462;53.156;8.220;2022-08-06T07:47:20;0.77;;;0.50;;
7657;SDS011;8462;53.156;8.220;2022-08-06T07:49:56;1.65;;;0.80;;
7657;SDS011;8462;53.156;8.220;2022-08-06T07:52:26;1.52;;;0.60;;
7657;SDS011;8462;53.156;8.220;2022-08-06T07:54:55;2.05;;;0.63;;
7657;SDS011;8462;53.156;8.220;2022-08-06T07:57:23;0.53;;;0.47;;
7657;SDS011;8462;53.156;8.220;2022-08-06T07:59:52;1.20;;;0.70;;
7657;SDS011;8462;53.156;8.220;2022-08-06T08:02:19;1.63;;;0.73;;
7657;SDS011;8462;53.156;8.220;2022-08-06T08:04:47;2.00;;;0.70;;
7657;SDS011;8462;53.156;8.220;2022-08-06T08:07:33;2.57;;;0.67;;
7657;SDS011;8462;53.156;8.220;2022-08-06T08:10:00;0.97;;;0.50;;
7657;SDS011;8462;53.156;8.220;2022-08-06T08:12:28;0.77;;;0.60;;
7657;SDS011;8462;53.156;8.220;2022-08-06T08:14:55;2.47;;;1.23;;
7657;SDS011;8462;53.156;8.220;2022-08-06T08:17:23;2.80;;;0.70;;
7657;SDS011;8462;53.156;8.220;2022-08-06T08:19:50;1.43;;;0.67;;
7657;SDS011;8462;53.156;8.220;2022-08-06T08:22:18;1.67;;;1.10;;
7657;SDS011;8462;53.156;8.220;2022-08-06T08:24:47;2.13;;;0.83;;
7657;SDS011;8462;53.156;8.220;2022-08-06T08:27:14;1.17;;;0.50;;
7657;SDS011;8462;53.156;8.220;2022-08-06T08:29:41;0.50;;;0.43;;
7657;SDS011;8462;53.156;8.220;2022-08-06T08:32:08;0.67;;;0.53;;
7657;SDS011;8462;53.156;8.220;2022-08-06T08:34:35;0.47;;;0.47;;
7657;SDS011;8462;53.156;8.220;2022-08-06T08:37:02;0.40;;;0.40;;
7657;SDS011;8462;53.156;8.220;2022-08-06T08:39:31;2.00;;;0.70;;
7657;SDS011;8462;53.156;8.220;2022-08-06T08:42:02;1.50;;;0.73;;
7657;SDS011;8462;53.156;8.220;2022-08-06T08:44:32;1.53;;;0.60;;
7657;SDS011;8462;53.156;8.220;2022-08-06T08:47:00;0.57;;;0.50;;
7657;SDS011;8462;53.156;8.220;2022-08-06T08:49:28;2.13;;;0.60;;
7657;SDS011;8462;53.156;8.220;2022-08-06T08:52:01;2.07;;;0.70;;
7657;SDS011;8462;53.156;8.220;2022-08-06T08:54:29;2.20;;;0.53;;
7657;SDS011;8462;53.156;8.220;2022-08-06T08:57:02;1.20;;;0.60;;
7657;SDS011;8462;53.156;8.220;2022-08-06T08:59:30;0.40;;;0.40;;
7657;SDS011;8462;53.156;8.220;2022-08-06T09:01:58;1.47;;;0.60;;
7657;SDS011;8462;53.156;8.220;2022-08-06T09:04:25;0.90;;;0.50;;
7657;SDS011;8462;53.156;8.220;2022-08-06T09:06:53;1.30;;;0.50;;
7657;SDS011;8462;53.156;8.220;2022-08-06T09:09:20;1.00;;;0.90;;
7657;SDS011;8462;53.156;8.220;2022-08-06T09:11:47;1.87;;;0.70;;
7657;SDS011;8462;53.156;8.220;2022-08-06T09:14:16;0.40;;;0.40;;
7657;SDS011;8462;53.156;8.220;2022-08-06T09:16:43;1.50;;;0.60;;
7657;SDS011;8462;53.156;8.220;2022-08-06T09:19:10;0.63;;;0.53;;
7657;SDS011;8462;53.156;8.220;2022-08-06T09:21:38;1.00;;;0.57;;
7657;SDS011;8462;53.156;8.220;2022-08-06T09:24:05;2.20;;;0.80;;
7657;SDS011;8462;53.156;8.220;2022-08-06T09:26:32;1.07;;;0.53;;
7657;SDS011;8462;53.156;8.220;2022-08-06T09:29:10;2.93;;;0.40;;
7657;SDS011;8462;53.156;8.220;2022-08-06T09:31:47;0.50;;;0.50;;
7657;SDS011;8462;53.156;8.220;2022-08-06T09:34:14;0.70;;;0.40;;
7657;SDS011;8462;53.156;8.220;2022-08-06T09:36:41;0.93;;;0.37;;
7657;SDS011;8462;53.156;8.220;2022-08-06T09:39:09;0.90;;;0.50;;
7657;SDS011;8462;53.156;8.220;2022-08-06T09:41:44;1.97;;;0.50;;
7657;SDS011;8462;53.156;8.220;2022-08-06T09:44:12;1.00;;;0.40;;
7657;SDS011;8462;53.156;8.220;2022-08-06T09:46:41;1.47;;;0.47;;
7657;SDS011;8462;53.156;8.220;2022-08-06T09:49:10;0.40;;;0.40;;
7657;SDS011;8462;53.156;8.220;2022-08-06T09:51:38;4.57;;;1.20;;
7657;SDS011;8462;53.156;8.220;2022-08-06T09:54:06;0.63;;;0.47;;
7657;SDS011;8462;53.156;8.220;2022-08-06T09:56:35;0.40;;;0.40;;
7657;SDS011;8462;53.156;8.220;2022-08-06T09:59:03;0.73;;;0.50;;
7657;SDS011;8462;53.156;8.220;2022-08-06T10:01:37;1.60;;;0.80;;
7657;SDS011;8462;53.156;8.220;2022-08-06T10:04:07;1.43;;;0.40;;
7657;SDS011;8462;53.156;8.220;2022-08-06T10:06:50;0.50;;;0.50;;
7657;SDS011;8462;53.156;8.220;2022-08-06T10:09:17;1.83;;;0.82;;
7657;SDS011;8462;53.156;8.220;2022-08-06T10:11:44;1.97;;;0.50;;
7657;SDS011;8462;53.156;8.220;2022-08-06T10:14:19;2.27;;;0.87;;
7657;SDS011;8462;53.156;8.220;2022-08-06T10:17:02;2.40;;;0.43;;
7657;SDS011;8462;53.156;8.220;2022-08-06T10:19:31;0.90;;;0.57;;
7657;SDS011;8462;53.156;8.220;2022-08-06T10:22:02;3.13;;;0.87;;
7657;SDS011;8462;53.156;8.220;2022-08-06T10:24:30;1.13;;;0.60;;
7657;SDS011;8462;53.156;8.220;2022-08-06T10:26:58;0.80;;;0.40;;
7657;SDS011;8462;53.156;8.220;2022-08-06T10:29:25;0.85;;;0.45;;
7657;SDS011;8462;53.156;8.220;2022-08-06T10:31:53;0.88;;;0.47;;
7657;SDS011;8462;53.156;8.220;2022-08-06T10:34:23;0.63;;;0.60;;
7657;SDS011;8462;53.156;8.220;2022-08-06T10:36:54;0.50;;;0.50;;
7657;SDS011;8462;53.156;8.220;2022-08-06T10:39:25;1.03;;;0.60;;
7657;SDS011;8462;53.156;8.220;2022-08-06T10:41:53;3.08;;;1.73;;
7657;SDS011;8462;53.156;8.220;2022-08-06T10:44:21;1.67;;;0.90;;
7657;SDS011;8462;53.156;8.220;2022-08-06T10:46:49;1.63;;;0.70;;
7657;SDS011;8462;53.156;8.220;2022-08-06T10:49:17;1.93;;;0.90;;
7657;SDS011;8462;53.156;8.220;2022-08-06T10:51:47;1.50;;;1.07;;
7657;SDS011;8462;53.156;8.220;2022-08-06T10:54:17;2.80;;;0.77;;
7657;SDS011;8462;53.156;8.220;2022-08-06T10:56:44;1.80;;;0.50;;
7657;SDS011;8462;53.156;8.220;2022-08-06T10:59:12;1.37;;;0.70;;
7657;SDS011;8462;53.156;8.220;2022-08-06T11:01:43;0.87;;;0.43;;
7657;SDS011;8462;53.156;8.220;2022-08-06T11:04:21;1.33;;;0.50;;
7657;SDS011;8462;53.156;8.220;2022-08-06T11:07:04;0.73;;;0.50;;
7657;SDS011;8462;53.156;8.220;2022-08-06T11:13:16;0.83;;;0.70;;
7657;SDS011;8462;53.156;8.220;2022-08-06T11:15:47;1.57;;;0.50;;
7657;SDS011;8462;53.156;8.220;2022-08-06T11:18:14;1.37;;;0.57;;
7657;SDS011;8462;53.156;8.220;2022-08-06T11:20:43;1.57;;;1.13;;
7657;SDS011;8462;53.156;8.220;2022-08-06T11:23:21;1.43;;;0.70;;
7657;SDS011;8462;53.156;8.220;2022-08-06T11:25:54;0.60;;;0.50;;
7657;SDS011;8462;53.156;8.220;2022-08-06T11:31:31;1.43;;;0.50;;
7657;SDS011;8462;53.156;8.220;2022-08-06T11:34:00;2.03;;;0.80;;
7657;SDS011;8462;53.156;8.220;2022-08-06T11:36:41;1.93;;;0.70;;
7657;SDS011;8462;53.156;8.220;2022-08-06T11:39:12;0.67;;;0.60;;
7657;SDS011;8462;53.156;8.220;2022-08-06T11:41:47;1.30;;;0.50;;
7657;SDS011;8462;53.156;8.220;2022-08-06T11:44:18;0.63;;;0.57;;
7657;SDS011;8462;53.156;8.220;2022-08-06T11:46:46;1.20;;;0.50;;
7657;SDS011;8462;53.156;8.220;2022-08-06T11:49:15;0.60;;;0.50;;
7657;SDS011;8462;53.156;8.220;2022-08-06T11:51:49;1.90;;;0.80;;
7657;SDS011;8462;53.156;8.220;2022-08-06T11:54:18;1.23;;;0.50;;
7657;SDS011;8462;53.156;8.220;2022-08-06T12:00:10;1.70;;;0.60;;
7657;SDS011;8462;53.156;8.220;2022-08-06T12:02:44;1.00;;;0.60;;
7657;SDS011;8462;53.156;8.220;2022-08-06T12:05:36;1.70;;;0.90;;
7657;SDS011;8462;53.156;8.220;2022-08-06T12:08:18;2.23;;;0.70;;
7657;SDS011;8462;53.156;8.220;2022-08-06T12:13:53;0.60;;;0.47;;
7657;SDS011;8462;53.156;8.220;2022-08-06T12:16:26;0.60;;;0.60;;
7657;SDS011;8462;53.156;8.220;2022-08-06T12:18:54;0.93;;;0.50;;
7657;SDS011;8462;53.156;8.220;2022-08-06T12:21:22;2.10;;;0.70;;
7657;SDS011;8462;53.156;8.220;2022-08-06T12:23:50;2.20;;;0.80;;
7657;SDS011;8462;53.156;8.220;2022-08-06T12:26:17;2.50;;;0.90;;
7657;SDS011;8462;53.156;8.220;2022-08-06T12:28:45;2.90;;;0.80;;
7657;SDS011;8462;53.156;8.220;2022-08-06T12:31:12;1.37;;;0.70;;
7657;SDS011;8462;53.156;8.220;2022-08-06T12:33:43;2.47;;;0.90;;
7657;SDS011;8462;53.156;8.220;2022-08-06T12:36:10;3.33;;;1.00;;
7657;SDS011;8462;53.156;8.220;2022-08-06T12:38:37;0.63;;;0.63;;
7657;SDS011;8462;53.156;8.220;2022-08-06T12:41:05;1.77;;;0.90;;
7657;SDS011;8462;53.156;8.220;2022-08-06T12:43:34;2.57;;;0.93;;
7657;SDS011;8462;53.156;8.220;2022-08-06T12:46:03;2.27;;;1.10;;
7657;SDS011;8462;53.156;8.220;2022-08-06T12:48:31;1.27;;;0.97;;
7657;SDS011;8462;53.156;8.220;2022-08-06T12:51:05;1.93;;;0.93;;
7657;SDS011;8462;53.156;8.220;2022-08-06T12:53:36;2.73;;;0.90;;
7657;SDS011;8462;53.156;8.220;2022-08-06T12:56:04;1.73;;;1.07;;
7657;SDS011;8462;53.156;8.220;2022-08-06T12:58:32;3.00;;;1.00;;
7657;SDS011;8462;53.156;8.220;2022-08-06T13:01:01;3.60;;;1.10;;
7657;SDS011;8462;53.156;8.220;2022-08-06T13:03:31;12.27;;;9.57;;
7657;SDS011;8462;53.156;8.220;2022-08-06T13:06:00;3.43;;;1.40;;
7657;SDS011;8462;53.156;8.220;2022-08-06T13:08:29;2.83;;;1.50;;
7657;SDS011;8462;53.156;8.220;2022-08-06T13:10:57;4.33;;;1.73;;
7657;SDS011;8462;53.156;8.220;2022-08-06T13:13:33;1.13;;;1.00;;
7657;SDS011;8462;53.156;8.220;2022-08-06T13:16:04;1.43;;;1.10;;
7657;SDS011;8462;53.156;8.220;2022-08-06T13:18:32;1.57;;;1.20;;
7657;SDS011;8462;53.156;8.220;2022-08-06T13:21:00;1.50;;;1.10;;
7657;SDS011;8462;53.156;8.220;2022-08-06T13:23:31;5.00;;;1.63;;
7657;SDS011;8462;53.156;8.220;2022-08-06T13:26:10;1.27;;;1.13;;
7657;SDS011;8462;53.156;8.220;2022-08-06T13:28:39;2.23;;;1.40;;
7657;SDS011;8462;53.156;8.220;2022-08-06T13:31:16;1.60;;;1.07;;
7657;SDS011;8462;53.156;8.220;2022-08-06T13:33:57;3.17;;;1.30;;
7657;SDS011;8462;53.156;8.220;2022-08-06T13:36:25;2.13;;;1.50;;
7657;SDS011;8462;53.156;8.220;2022-08-06T13:38:54;2.07;;;1.20;;
7657;SDS011;8462;53.156;8.220;2022-08-06T13:41:25;3.60;;;1.50;;
7657;SDS011;8462;53.156;8.220;2022-08-06T13:43:54;4.07;;;1.60;;
7657;SDS011;8462;53.156;8.220;2022-08-06T13:46:21;3.60;;;1.93;;
7657;SDS011;8462;53.156;8.220;2022-08-06T13:48:51;2.40;;;1.20;;
7657;SDS011;8462;53.156;8.220;2022-08-06T13:51:20;1.80;;;1.50;;
7657;SDS011;8462;53.156;8.220;2022-08-06T13:53:48;3.97;;;1.50;;
7657;SDS011;8462;53.156;8.220;2022-08-06T13:56:16;2.13;;;1.50;;
7657;SDS011;8462;53.156;8.220;2022-08-06T13:58:43;1.80;;;1.47;;
7657;SDS011;8462;53.156;8.220;2022-08-06T14:01:10;3.27;;;1.50;;
7657;SDS011;8462;53.156;8.220;2022-08-06T14:03:38;4.00;;;1.70;;
7657;SDS011;8462;53.156;8.220;2022-08-06T14:06:05;3.03;;;2.50;;
7657;SDS011;8462;53.156;8.220;2022-08-06T14:08:32;12.70;;;7.30;;
7657;SDS011;8462;53.156;8.220;2022-08-06T14:10:59;2.40;;;1.80;;
7657;SDS011;8462;53.156;8.220;2022-08-06T14:13:28;2.83;;;1.80;;
7657;SDS011;8462;53.156;8.220;2022-08-06T14:15:57;4.37;;;2.00;;
7657;SDS011;8462;53.156;8.220;2022-08-06T14:18:25;2.90;;;1.90;;
7657;SDS011;8462;53.156;8.220;2022-08-06T14:20:54;2.83;;;1.83;;
7657;SDS011;8462;53.156;8.220;2022-08-06T14:23:21;2.40;;;1.27;;
7657;SDS011;8462;53.156;8.220;2022-08-06T14:25:48;2.87;;;1.87;;
7657;SDS011;8462;53.156;8.220;2022-08-06T14:28:15;2.27;;;1.80;;
7657;SDS011;8462;53.156;8.220;2022-08-06T14:30:44;3.37;;;2.63;;
7657;SDS011;8462;53.156;8.220;2022-08-06T14:33:11;2.93;;;2.47;;
7657;SDS011;8462;53.156;8.220;2022-08-06T14:35:38;4.67;;;2.77;;
7657;SDS011;8462;53.156;8.220;2022-08-06T14:38:05;5.37;;;3.53;;
7657;SDS011;8462;53.156;8.220;2022-08-06T14:40:33;3.33;;;2.97;;
7657;SDS011;8462;53.156;8.220;2022-08-06T14:43:17;6.60;;;2.50;;
7657;SDS011;8462;53.156;8.220;2022-08-06T14:46:03;5.23;;;2.93;;
7657;SDS011;8462;53.156;8.220;2022-08-06T14:48:30;4.73;;;3.80;;
7657;SDS011;8462;53.156;8.220;2022-08-06T14:50:57;5.43;;;3.03;;
7657;SDS011;8462;53.156;8.220;2022-08-06T14:53:24;7.73;;;3.43;;
7657;SDS011;8462;53.156;8.220;2022-08-06T14:55:51;3.83;;;3.43;;
7657;SDS011;8462;53.156;8.220;2022-08-06T14:58:18;4.13;;;3.00;;
7657;SDS011;8462;53.156;8.220;2022-08-06T15:00:45;5.37;;;3.73;;
7657;SDS011;8462;53.156;8.220;2022-08-06T15:03:14;6.03;;;3.93;;
7657;SDS011;8462;53.156;8.220;2022-08-06T15:05:41;4.60;;;3.57;;
7657;SDS011;8462;53.156;8.220;2022-08-06T15:08:09;4.17;;;3.40;;
7657;SDS011;8462;53.156;8.220;2022-08-06T15:10:36;6.43;;;3.93;;
7657;SDS011;8462;53.156;8.220;2022-08-06T15:13:03;4.33;;;3.53;;
7657;SDS011;8462;53.156;8.220;2022-08-06T15:15:31;4.13;;;3.67;;
7657;SDS011;8462;53.156;8.220;2022-08-06T15:17:59;5.03;;;2.93;;
7657;SDS011;8462;53.156;8.220;2022-08-06T15:20:27;3.50;;;3.10;;
7657;SDS011;8462;53.156;8.220;2022-08-06T15:22:54;4.77;;;3.90;;
7657;SDS011;8462;53.156;8.220;2022-08-06T15:25:21;5.77;;;3.37;;
7657;SDS011;8462;53.156;8.220;2022-08-06T15:27:48;6.73;;;4.07;;
7657;SDS011;8462;53.156;8.220;2022-08-06T15:30:15;5.50;;;3.80;;
7657;SDS011;8462;53.156;8.220;2022-08-06T15:32:43;4.27;;;3.73;;
7657;SDS011;8462;53.156;8.220;2022-08-06T15:35:12;5.47;;;4.10;;
7657;SDS011;8462;53.156;8.220;2022-08-06T15:37:41;7.70;;;4.50;;
7657;SDS011;8462;53.156;8.220;2022-08-06T15:40:08;5.43;;;4.43;;
7657;SDS011;8462;53.156;8.220;2022-08-06T15:42:36;5.17;;;3.77;;
7657;SDS011;8462;53.156;8.220;2022-08-06T15:45:03;5.30;;;4.20;;
7657;SDS011;8462;53.156;8.220;2022-08-06T15:47:30;6.53;;;4.40;;